createdAt,value
2023-06-01T02:06:48.931Z,6.32
2023-06-01T02:09:15.783Z,6.25
2023-06-01T02:11:45.310Z,6.78
2023-06-01T02:14:16.785Z,6.63
2023-06-01T02:16:43.503Z,5.57
2023-06-01T02:19:10.125Z,6.10
2023-06-01T02:21:38.079Z,5.38
2023-06-01T02:24:05.165Z,5.93
2023-06-01T02:26:31.951Z,6.30
2023-06-01T02:28:58.716Z,7.57
2023-06-01T02:31:25.414Z,6.47
2023-06-01T02:33:54.111Z,6.95
2023-06-01T02:36:21.800Z,7.13
2023-06-01T02:38:48.554Z,6.57
2023-06-01T02:41:15.243Z,5.90
2023-06-01T02:43:42.041Z,7.22
2023-06-01T02:46:11.072Z,7.53
2023-06-01T02:48:38.372Z,6.10
2023-06-01T02:51:05.014Z,7.03
2023-06-01T02:53:31.788Z,6.10
2023-06-01T02:55:58.812Z,6.35
2023-06-01T02:58:29.488Z,6.20
2023-06-01T03:00:56.936Z,6.65
2023-06-01T03:03:23.602Z,5.88
2023-06-01T03:05:53.038Z,6.55
2023-06-01T03:08:19.762Z,6.40
2023-06-01T03:10:48.312Z,6.63
2023-06-01T03:13:14.976Z,6.60
2023-06-01T03:15:47.256Z,6.95
2023-06-01T03:18:19.241Z,6.78
2023-06-01T03:20:50.211Z,6.65
2023-06-01T03:23:17.061Z,7.07
2023-06-01T03:25:43.745Z,6.75
2023-06-01T03:28:10.457Z,6.80
2023-06-01T03:30:37.046Z,6.78
2023-06-01T03:33:06.561Z,6.05
2023-06-01T03:35:37.502Z,6.85
2023-06-01T03:38:06.679Z,6.55
2023-06-01T03:40:33.285Z,6.30
2023-06-01T03:43:01.562Z,6.35
2023-06-01T03:45:34.381Z,7.05
2023-06-01T03:48:11.587Z,6.60
2023-06-01T03:50:39.443Z,7.22
2023-06-01T03:53:06.074Z,7.07
2023-06-01T03:55:32.727Z,6.93
2023-06-01T03:57:59.521Z,5.20
2023-06-01T04:00:26.120Z,6.38
2023-06-01T04:02:57.175Z,7.53
2023-06-01T04:05:25.621Z,7.45
2023-06-01T04:07:53.315Z,6.43
2023-06-01T04:10:20.273Z,5.95
2023-06-01T04:12:50.714Z,6.18
2023-06-01T04:15:22.211Z,5.60
2023-06-01T04:17:48.878Z,6.43
2023-06-01T04:20:16.688Z,6.78
2023-06-01T04:22:43.805Z,6.10
2023-06-01T04:25:11.219Z,6.45
2023-06-01T12:11:25.477Z,4.93
2023-06-01T12:13:52.148Z,5.80
2023-06-01T12:16:22.754Z,5.00
2023-06-01T12:18:50.346Z,4.45
2023-06-01T12:21:17.118Z,5.60
2023-06-01T12:23:44.299Z,5.15
2023-06-01T12:26:10.937Z,5.32
2023-06-01T12:29:04.251Z,5.35
2023-06-01T12:34:17.286Z,5.32
2023-06-01T12:36:46.682Z,5.15
2023-06-01T12:39:13.331Z,5.55
2023-06-01T12:41:50.699Z,5.75
2023-06-01T12:44:21.498Z,6.05
2023-06-01T12:46:49.510Z,5.68
2023-06-01T12:49:19.500Z,4.78
2023-06-01T12:52:02.361Z,5.05
2023-06-01T12:54:34.004Z,5.15
2023-06-01T12:57:00.701Z,4.70
2023-06-01T12:59:27.324Z,5.15
2023-06-01T13:01:54.065Z,4.85
2023-06-01T13:04:20.949Z,5.07
2023-06-01T13:06:49.557Z,4.93
2023-06-01T13:09:16.911Z,5.20
2023-06-01T13:11:46.395Z,4.60
2023-06-01T13:14:13.130Z,4.82
2023-06-01T13:16:39.897Z,4.63
2023-06-01T13:19:08.101Z,4.75
2023-06-01T13:21:37.757Z,4.70
2023-06-01T13:24:04.645Z,4.80
2023-06-01T13:26:31.303Z,5.40
2023-06-01T13:29:00.072Z,5.05
2023-06-01T13:31:26.788Z,4.40
2023-06-01T13:33:53.484Z,5.03
2023-06-01T13:36:23.091Z,5.35
2023-06-01T13:38:49.725Z,4.55
2023-06-01T13:41:16.401Z,5.10
2023-06-01T13:43:45.419Z,5.15
2023-06-01T13:46:12.964Z,5.30
2023-06-01T13:48:39.693Z,4.88
2023-06-01T13:51:06.563Z,4.75
2023-06-01T13:53:37.390Z,5.78
2023-06-01T13:56:05.310Z,5.40
2023-06-01T13:58:34.330Z,5.07
2023-06-01T14:01:01.233Z,4.85
2023-06-01T14:03:28.414Z,5.05
2023-06-01T14:06:03.980Z,4.70
2023-06-01T14:08:31.073Z,5.10
2023-06-01T14:10:57.727Z,5.93
2023-06-01T14:13:24.530Z,4.85
2023-06-01T14:15:51.228Z,5.00
2023-06-01T14:18:17.965Z,5.18
2023-06-01T14:20:44.676Z,5.57
2023-06-01T14:23:11.361Z,5.15
2023-06-01T14:25:45.162Z,5.07
2023-06-01T14:28:12.800Z,4.90
2023-06-01T14:30:42.537Z,5.03
2023-06-01T14:33:09.328Z,4.63
2023-06-01T14:35:36.070Z,4.80
2023-06-01T14:38:06.194Z,4.63
2023-06-01T14:40:32.846Z,4.80
2023-06-01T14:42:59.522Z,4.97
2023-06-01T14:45:26.263Z,5.10
2023-06-01T14:47:52.996Z,5.47
2023-06-01T14:50:19.752Z,5.20
2023-06-01T14:52:46.441Z,4.38
2023-06-01T14:55:15.451Z,4.70
2023-06-01T14:57:42.350Z,4.80
2023-06-01T15:00:10.862Z,4.97
2023-06-01T15:02:37.544Z,4.40
2023-06-01T15:05:04.333Z,4.60
2023-06-01T15:07:32.512Z,4.60
2023-06-01T15:09:59.246Z,4.68
2023-06-01T15:12:26.012Z,4.80
2023-06-01T15:14:52.681Z,4.53
2023-06-01T15:17:19.576Z,4.63
2023-06-01T15:19:46.679Z,4.97
2023-06-01T15:22:15.692Z,4.40
2023-06-01T15:24:42.396Z,4.82
2023-06-01T15:27:09.181Z,4.80
2023-06-01T15:29:35.855Z,4.07
2023-06-01T15:32:05.229Z,5.00
2023-06-01T15:34:33.610Z,4.70
2023-06-01T15:37:00.384Z,5.10
2023-06-01T15:39:27.119Z,4.40
2023-06-01T15:41:58.024Z,4.93
2023-06-01T15:44:25.200Z,4.28
2023-06-01T15:46:56.562Z,4.88
2023-06-01T15:49:23.918Z,4.40
2023-06-01T15:51:50.737Z,4.80
2023-06-01T15:54:21.086Z,4.35
2023-06-01T15:56:47.764Z,3.92
2023-06-01T15:59:16.470Z,4.82
2023-06-01T16:01:43.531Z,4.65
2023-06-01T16:04:10.352Z,4.18
2023-06-01T16:06:37.146Z,4.70
2023-06-01T16:09:03.822Z,4.72
2023-06-01T16:11:30.604Z,4.97
2023-06-01T16:13:57.265Z,4.40
2023-06-01T16:16:25.696Z,4.32
2023-06-01T16:18:52.447Z,4.32
2023-06-01T16:21:19.387Z,4.40
2023-06-01T16:23:46.058Z,4.82
2023-06-01T16:26:12.703Z,4.47
2023-06-01T16:28:39.436Z,4.50
2023-06-01T16:31:09.453Z,4.60
2023-06-01T16:33:36.173Z,4.30
2023-06-01T16:36:03.692Z,4.40
2023-06-01T16:38:30.336Z,4.03
2023-06-01T16:40:56.970Z,4.07
2023-06-01T16:43:23.587Z,4.30
2023-06-01T16:45:51.128Z,4.10
2023-06-01T16:48:18.114Z,4.70
2023-06-01T16:50:45.166Z,4.88
2023-06-01T16:53:12.283Z,5.07
2023-06-01T16:55:39.358Z,4.00
2023-06-01T16:58:06.676Z,4.40
2023-06-01T17:00:36.397Z,4.15
2023-06-01T17:03:03.197Z,4.13
2023-06-01T17:05:30.002Z,4.72
2023-06-01T17:07:56.674Z,4.60
2023-06-01T17:10:23.400Z,4.20
2023-06-01T17:12:50.150Z,3.90
2023-06-01T17:15:23.225Z,4.18
2023-06-01T17:17:50.132Z,4.30
2023-06-01T17:20:16.954Z,4.38
2023-06-01T17:22:43.651Z,4.72
2023-06-01T17:25:13.750Z,4.22
2023-06-01T17:27:40.807Z,3.90
2023-06-01T17:30:07.765Z,4.05
2023-06-01T17:32:34.534Z,4.15
2023-06-01T17:35:03.184Z,4.00
2023-06-01T17:37:30.231Z,4.05
2023-06-01T17:40:01.620Z,4.35
2023-06-01T17:45:00.433Z,4.22
2023-06-01T17:47:34.226Z,4.38
2023-06-01T17:50:01.123Z,4.13
2023-06-01T17:52:31.453Z,4.43
2023-06-01T17:54:59.887Z,4.32
2023-06-01T17:57:26.517Z,4.53
2023-06-01T17:59:54.213Z,4.82
2023-06-01T18:02:20.818Z,4.53
2023-06-01T18:04:49.411Z,4.68
2023-06-01T18:07:20.962Z,4.90
2023-06-01T18:09:48.005Z,4.40
2023-06-01T18:12:14.637Z,4.38
2023-06-01T18:14:41.329Z,4.00
2023-06-01T18:17:08.079Z,4.15
2023-06-01T18:19:34.808Z,4.07
2023-06-01T18:22:04.449Z,4.75
2023-06-01T18:24:33.967Z,4.47
2023-06-01T18:27:00.675Z,4.40
2023-06-01T18:29:27.295Z,4.32
2023-06-01T18:31:53.993Z,4.10
2023-06-01T18:34:20.795Z,5.28
2023-06-01T18:36:53.174Z,5.20
2023-06-01T18:39:21.391Z,4.18
2023-06-01T18:41:50.042Z,4.13
2023-06-01T18:44:17.221Z,4.20
2023-06-01T18:46:43.930Z,4.30
2023-06-01T18:49:10.642Z,3.95
2023-06-01T18:51:37.353Z,4.30
2023-06-01T18:54:09.637Z,4.50
2023-06-01T18:56:36.429Z,4.35
2023-06-01T18:59:03.622Z,4.30
2023-06-01T19:01:30.338Z,4.45
2023-06-01T19:03:58.864Z,4.07
2023-06-01T19:06:25.564Z,4.65
2023-06-01T19:08:52.297Z,4.70
2023-06-01T19:11:21.790Z,4.30
2023-06-01T19:13:49.911Z,4.47
2023-06-01T19:16:16.656Z,4.20
2023-06-01T19:18:47.135Z,4.40
2023-06-01T19:21:16.721Z,4.70
2023-06-01T19:24:12.148Z,4.38
2023-06-01T19:26:40.627Z,4.03
2023-06-01T19:29:11.877Z,4.63
2023-06-01T19:31:41.596Z,4.30
2023-06-01T19:34:13.185Z,4.20
2023-06-01T19:39:08.346Z,4.57
2023-06-01T19:41:34.998Z,3.88
2023-06-01T19:44:02.195Z,4.40
2023-06-01T19:46:28.853Z,4.32
2023-06-01T19:48:59.726Z,4.60
2023-06-01T19:51:26.445Z,4.35
2023-06-01T19:53:55.828Z,4.18
2023-06-01T19:56:25.279Z,4.55
2023-06-01T19:59:05.761Z,4.15
2023-06-01T20:01:37.013Z,4.25
2023-06-01T20:04:05.041Z,4.30
2023-06-01T20:06:31.842Z,4.00
2023-06-01T20:09:11.165Z,4.30
2023-06-01T20:11:38.726Z,4.35
2023-06-01T20:14:16.242Z,4.97
2023-06-01T20:16:43.718Z,4.70
2023-06-01T20:19:13.292Z,4.30
2023-06-01T20:21:40.696Z,4.20
2023-06-01T20:24:15.293Z,4.53
2023-06-01T20:26:42.055Z,4.35
2023-06-01T20:29:10.923Z,4.38
2023-06-01T20:31:37.715Z,4.57
2023-06-01T20:34:07.961Z,4.70
2023-06-01T20:36:35.070Z,4.82
2023-06-01T20:39:01.844Z,5.10
2023-06-01T20:41:29.832Z,4.22
2023-06-01T20:43:59.744Z,4.45
2023-06-01T20:46:28.862Z,4.25
2023-06-01T20:48:57.011Z,4.57
2023-06-01T20:51:26.630Z,4.93
2023-06-01T20:54:04.411Z,4.75
2023-06-01T20:56:34.111Z,4.70
2023-06-01T20:59:04.770Z,4.60
2023-06-01T21:01:38.773Z,4.60
2023-06-01T21:04:09.894Z,4.70
2023-06-01T21:06:36.582Z,4.57
2023-06-01T21:09:03.453Z,4.80
2023-06-01T21:11:30.676Z,4.55
2023-06-01T21:13:57.376Z,5.00
2023-06-01T21:16:27.139Z,4.68
2023-06-01T21:18:53.935Z,4.80
2023-06-01T21:21:20.745Z,4.15
2023-06-01T21:23:50.247Z,4.82
2023-06-01T21:26:17.269Z,4.45
2023-06-01T21:28:44.089Z,4.95
2023-06-01T21:31:10.800Z,4.60
2023-06-01T21:33:37.844Z,4.95
2023-06-01T21:36:07.289Z,4.68
2023-06-01T21:38:34.085Z,4.45
2023-06-01T21:41:00.769Z,5.03
2023-06-01T21:43:30.974Z,4.90
2023-06-01T21:45:59.590Z,5.03
2023-06-01T21:48:26.443Z,4.97
2023-06-01T21:50:53.279Z,5.15
2023-06-01T21:53:20.946Z,5.00
2023-06-01T21:55:53.726Z,4.80
2023-06-01T21:58:23.138Z,4.68
2023-06-01T22:00:50.135Z,4.68
2023-06-01T22:03:17.489Z,4.47
2023-06-01T22:05:44.249Z,4.90
2023-06-01T22:08:11.073Z,4.93
2023-06-01T22:10:39.754Z,4.70
2023-06-01T22:13:07.373Z,4.80
2023-06-01T22:15:34.051Z,4.72
2023-06-01T22:18:01.093Z,4.82
2023-06-01T22:20:28.458Z,4.50
2023-06-01T22:22:55.212Z,5.05
2023-06-01T22:25:24.510Z,4.97
2023-06-01T22:27:51.737Z,4.72
2023-06-01T22:30:18.456Z,4.63
2023-06-01T22:32:47.191Z,4.88
2023-06-01T22:35:15.050Z,4.60
2023-06-01T22:37:48.585Z,5.53
2023-06-01T22:40:17.237Z,4.50
2023-06-01T22:42:49.044Z,4.47
2023-06-01T22:45:17.968Z,5.03
2023-06-01T22:47:44.635Z,4.80
2023-06-01T22:50:11.396Z,4.60
2023-06-01T22:52:45.070Z,4.68
2023-06-01T22:55:21.125Z,4.78
2023-06-01T22:57:51.844Z,4.93
2023-06-01T23:00:18.609Z,4.60
2023-06-01T23:02:55.741Z,4.70
2023-06-01T23:05:25.637Z,4.60
2023-06-01T23:08:00.109Z,4.85
2023-06-01T23:10:27.673Z,5.10
2023-06-01T23:12:54.322Z,5.40
2023-06-01T23:15:21.021Z,5.78
2023-06-01T23:17:49.434Z,5.10
2023-06-01T23:20:16.200Z,5.55
2023-06-01T23:22:45.430Z,5.80
2023-06-01T23:25:12.126Z,5.55
2023-06-01T23:27:38.802Z,6.10
2023-06-01T23:30:05.754Z,5.57
2023-06-01T23:32:35.575Z,5.43
2023-06-01T23:35:03.881Z,5.78
2023-06-01T23:37:34.128Z,5.03
2023-06-01T23:40:05.260Z,5.50
2023-06-01T23:42:35.636Z,5.30
2023-06-01T23:45:06.589Z,5.47
2023-06-01T23:47:36.675Z,5.72
2023-06-01T23:50:07.995Z,4.97
2023-06-01T23:52:34.826Z,4.97
2023-06-01T23:55:03.838Z,5.45
2023-06-01T23:57:32.517Z,5.75
2023-06-01T23:59:59.733Z,5.55
